Alpine Village, Colorado
Current Conditions -  °F | °C
As of 5:14 PM on Saturday 20 Dec 2014 (Local Time) from K7BM Reporting Station
Scattered Clouds Scattered Clouds  
Wind Chill: 32°   Ceiling: Unl
Heat Index: 32°   Visibility: 10mi
Dew Point: 14°   Wind: 3mph
Humidity: 47%   Direction: 350°N
Pressure: 30.02"   Gusts: NA
Location:  38.7194°N, 106.276°W
Report Text: K7BM 210014Z AUTO 35003KT 10SM SCT042 SCT120 00/M10 A3002 RMK AO2
Loading
Personal Weather Stations






























Interactive Weather Map New forecast layout! Learn more

10-Day Weather Forecast

Advertisements
Track Severe Weather on mobile